Saturday, November 01, 2014
01:17 UTC
  |  Log In   |  Register Free
Airport Search:

Dawson Municipal Airport
(16J)

Dawson Municipal Airport Diagram
No Airport Diagram Available

FAA data valid effective September 18, 2014 - November 13, 2014 (unless otherwise noted).

 
 
 
 
 
 
 
 
 
 
 
 
 
 

Current Aviation Weather for Dawson Municipal Airport (16J)

METAR data is unavailable for 16J. The nearest METAR location is at KABY (17 nm SE from 16J).

The most recent METAR observation for KABY was updated at: 0112
METAR Summary (Translated METAR)
KABY
010053Z 29005KT 10SM FEW070 BKN100 16/07 A2994 RMK AO2 SLP136 T01560072 PNO
(17 nm SE from 16J)
KACJ
010055Z AUTO 32004KT 10SM CLR 14/06 A2993 RMK AO2
(25 nm NE from 16J)
TAF Summary (Translated TAF)
KABY
311725Z 3118/0118 31012KT P6SM SCT060 FM010400 32015G20KT P6SM BKN030 FM011400 32020G25KT P6SM SKC
  Airport Weather Conditions for 16J

Current weather conditions are
not available for 16J


The nearest NOAA weather station
is at ABY, (17 nm SE from 16J)
  
 Current Weather at ABY
60° F
Mostly Cloudy
West winds at 5.8 mph
ABY NOAA Radar

Pressure: 29.94 in
Humidity: 58%
Wind: West at 5.8 MPH (5 KT)
Dew Point: 45.0°F
Visibility: 10.00 mi


Airport Weather Forecast for 16J

Translated METAR and TAF for KABY
Translated METAR for KABY (0113 UTC 01 November 2014)
found at http://aviationweather.gov/adds/metars/
 
METAR text: KABY 010053Z 29005KT 10SM FEW070 BKN100 16/07 A2994 RMK AO2 SLP136 T01560072 PNO
Conditions at: KABY (ALBANY , GA, US) observed 0053 UTC 01 November 2014
Temperature: 15.6°C (60°F)
Dewpoint: 7.2°C (45°F) [RH = 57%]
Pressure (altimeter): 29.94 inches Hg (1014.0 mb)
[Sea-level pressure: 1013.6 mb]
Winds: from the WNW (290 degrees) at 6 MPH (5 knots; 2.6 m/s)
Visibility: 10 or more miles (16+ km)
Ceiling: 10000 feet AGL
Clouds: few clouds at 7000 feet AGL
broken clouds at 10000 feet AGL
Weather: no significant weather observed at this time
Translated TAF for KABY
Forecast for: KABY (ALBANY , GA, US)
TAF Text: KABY 312320Z 0100/0124 31012KT P6SM SCT060
Forecast period: 0000 to 0400 UTC 01 November 2014
Forecast type: FROM: standard forecast or significant change
Winds: from the NW (310 degrees) at 14 MPH (12 knots; 6.2 m/s)
Visibility: 6 or more miles (10+ km)
Clouds: scattered clouds at 6000 feet AGL
Weather: no significant weather forecast for this period
TAF Text: FM010400 32015G20KT P6SM SCT030
Forecast period: 0400 to 1400 UTC 01 November 2014
Forecast type: FROM: standard forecast or significant change
Winds: from the NW (320 degrees) at 17 MPH (15 knots; 7.8 m/s)
gusting to 23 MPH (20 knots; 10.4 m/s)
Visibility: 6 or more miles (10+ km)
Clouds: scattered clouds at 3000 feet AGL
Weather: no significant weather forecast for this period
TAF Text: FM011400 32020G25KT P6SM SKC
Forecast period: 1400 UTC 01 November 2014 to 0000 UTC 02 November 2014
Forecast type: FROM: standard forecast or significant change
Winds: from the NW (320 degrees) at 23 MPH (20 knots; 10.4 m/s)
gusting to 29 MPH (25 knots; 13.0 m/s)
Visibility: 6 or more miles (10+ km)
Clouds: clear skies
Weather: no significant weather forecast for this period

Find All Airport Services Find A Hotel Find A Rental Car Find A Golf Course Find A Restaurant $100 Hamburger



FBO's on the Field
FBO Company Facility Photos Services Transportation Aviation Fuel Prices: Prices include tax
Catering Weather Repair Courtesy Rental Type 100LL JetA JetA+ MOGAS 8087
 
Dawson/Terrell Co. Airport

This FBO has not yet been rated
FS:Independent
Last Updated: Oct-13
Login to update fuel prices
SS:
Contact Dawson/Terrell Co. AirportMore FBO Information
 
Add another FBO Facility Photos Catering Weather Repair Courtesy Rental Type 100LL JetA JetA+ MOGAS 8087
Services Transportation Aviation Fuel Prices: Prices include tax


model-print
model-print
model-print
model-print